sensor_id;sensor_type;location;lat;lon;timestamp;pressure;altitude;pressure_sealevel;temperature;humidity
62978;BME280;49073;42.352;23.808;2024-02-14T00:02:18;94302.59;;;4.38;99.64
62978;BME280;49073;42.352;23.808;2024-02-14T00:05:19;94299.47;;;4.45;99.03
62978;BME280;49073;42.352;23.808;2024-02-14T00:08:19;94301.66;;;4.43;98.13
62978;BME280;49073;42.352;23.808;2024-02-14T00:11:21;94302.53;;;4.47;98.42
62978;BME280;49073;42.352;23.808;2024-02-14T00:14:21;94295.44;;;4.39;98.72
62978;BME280;49073;42.352;23.808;2024-02-14T00:17:22;94305.03;;;4.43;98.12
62978;BME280;49073;42.352;23.808;2024-02-14T00:20:22;94310.97;;;4.40;98.14
62978;BME280;49073;42.352;23.808;2024-02-14T00:23:24;94319.63;;;4.41;97.83
62978;BME280;49073;42.352;23.808;2024-02-14T00:26:25;94322.09;;;4.46;97.59
62978;BME280;49073;42.352;23.808;2024-02-14T00:29:26;94319.47;;;4.46;97.76
62978;BME280;49073;42.352;23.808;2024-02-14T00:32:27;94329.69;;;4.47;97.40
62978;BME280;49073;42.352;23.808;2024-02-14T00:35:28;94327.69;;;4.44;97.67
62978;BME280;49073;42.352;23.808;2024-02-14T00:38:28;94324.75;;;4.46;97.52
62978;BME280;49073;42.352;23.808;2024-02-14T00:41:29;94326.28;;;4.47;97.79
62978;BME280;49073;42.352;23.808;2024-02-14T00:44:30;94328.94;;;4.47;97.25
62978;BME280;49073;42.352;23.808;2024-02-14T00:47:32;94324.59;;;4.42;97.38
62978;BME280;49073;42.352;23.808;2024-02-14T00:50:33;94329.19;;;4.54;96.93
62978;BME280;49073;42.352;23.808;2024-02-14T00:53:38;94336.47;;;4.57;96.99
62978;BME280;49073;42.352;23.808;2024-02-14T00:56:38;94336.47;;;4.57;96.59
62978;BME280;49073;42.352;23.808;2024-02-14T00:59:39;94342.94;;;4.60;96.33
62978;BME280;49073;42.352;23.808;2024-02-14T01:02:39;94351.00;;;4.63;96.08
62978;BME280;49073;42.352;23.808;2024-02-14T01:05:40;94344.16;;;4.62;96.23
62978;BME280;49073;42.352;23.808;2024-02-14T01:08:41;94345.91;;;4.58;96.06
62978;BME280;49073;42.352;23.808;2024-02-14T01:11:41;94346.66;;;4.59;95.42
62978;BME280;49073;42.352;23.808;2024-02-14T01:14:43;94345.38;;;4.65;95.05
62978;BME280;49073;42.352;23.808;2024-02-14T01:17:44;94339.00;;;4.66;95.16
62978;BME280;49073;42.352;23.808;2024-02-14T01:20:48;94342.75;;;4.65;95.10
62978;BME280;49073;42.352;23.808;2024-02-14T01:23:48;94336.81;;;4.68;94.95
62978;BME280;49073;42.352;23.808;2024-02-14T01:26:49;94330.19;;;4.62;94.80
62978;BME280;49073;42.352;23.808;2024-02-14T01:29:50;94336.25;;;4.62;94.41
62978;BME280;49073;42.352;23.808;2024-02-14T01:32:51;94328.44;;;4.66;93.92
62978;BME280;49073;42.352;23.808;2024-02-14T01:35:53;94335.72;;;4.69;94.03
62978;BME280;49073;42.352;23.808;2024-02-14T01:38:54;94320.41;;;4.62;94.12
62978;BME280;49073;42.352;23.808;2024-02-14T01:41:55;94336.38;;;4.66;93.68
62978;BME280;49073;42.352;23.808;2024-02-14T01:44:55;94333.88;;;4.70;93.32
62978;BME280;49073;42.352;23.808;2024-02-14T01:47:56;94345.81;;;4.67;93.41
62978;BME280;49073;42.352;23.808;2024-02-14T01:50:57;94339.78;;;4.66;93.37
62978;BME280;49073;42.352;23.808;2024-02-14T01:54:00;94344.22;;;4.75;93.05
62978;BME280;49073;42.352;23.808;2024-02-14T01:57:00;94339.59;;;4.72;92.93
62978;BME280;49073;42.352;23.808;2024-02-14T02:00:03;94342.53;;;4.70;93.06
62978;BME280;49073;42.352;23.808;2024-02-14T02:03:15;94341.00;;;4.69;93.34
62978;BME280;49073;42.352;23.808;2024-02-14T02:06:16;94339.47;;;4.68;92.95
62978;BME280;49073;42.352;23.808;2024-02-14T02:09:16;94341.13;;;4.73;92.46
62978;BME280;49073;42.352;23.808;2024-02-14T02:12:17;94347.66;;;4.75;92.15
62978;BME280;49073;42.352;23.808;2024-02-14T02:15:17;94347.00;;;4.78;91.90
62978;BME280;49073;42.352;23.808;2024-02-14T02:18:19;94352.28;;;4.78;91.42
62978;BME280;49073;42.352;23.808;2024-02-14T02:21:20;94355.88;;;4.74;91.10
62978;BME280;49073;42.352;23.808;2024-02-14T02:24:23;94364.84;;;4.82;90.85
62978;BME280;49073;42.352;23.808;2024-02-14T02:27:24;94365.94;;;4.80;91.53
62978;BME280;49073;42.352;23.808;2024-02-14T02:30:24;94360.00;;;4.84;90.99
62978;BME280;49073;42.352;23.808;2024-02-14T02:33:25;94365.72;;;4.86;91.18
62978;BME280;49073;42.352;23.808;2024-02-14T02:36:26;94366.69;;;4.81;91.75
62978;BME280;49073;42.352;23.808;2024-02-14T02:39:30;94371.13;;;4.89;91.63
62978;BME280;49073;42.352;23.808;2024-02-14T02:42:30;94379.88;;;4.81;92.35
62978;BME280;49073;42.352;23.808;2024-02-14T02:45:31;94380.66;;;4.82;92.35
62978;BME280;49073;42.352;23.808;2024-02-14T02:48:31;94380.34;;;4.83;91.21
62978;BME280;49073;42.352;23.808;2024-02-14T02:51:32;94380.41;;;4.74;90.68
62978;BME280;49073;42.352;23.808;2024-02-14T02:54:33;94380.53;;;4.78;90.63
62978;BME280;49073;42.352;23.808;2024-02-14T02:57:33;94396.38;;;4.78;90.53
62978;BME280;49073;42.352;23.808;2024-02-14T03:00:37;94397.59;;;4.80;90.69
62978;BME280;49073;42.352;23.808;2024-02-14T03:03:38;94387.25;;;4.75;90.90
62978;BME280;49073;42.352;23.808;2024-02-14T03:06:39;94390.34;;;4.77;90.67
62978;BME280;49073;42.352;23.808;2024-02-14T03:09:39;94382.13;;;4.70;90.56
62978;BME280;49073;42.352;23.808;2024-02-14T03:12:41;94391.72;;;4.75;90.49
62978;BME280;49073;42.352;23.808;2024-02-14T03:15:42;94385.34;;;4.76;90.49
62978;BME280;49073;42.352;23.808;2024-02-14T03:18:44;94391.44;;;4.76;89.88
62978;BME280;49073;42.352;23.808;2024-02-14T03:21:45;94397.25;;;4.82;89.25
62978;BME280;49073;42.352;23.808;2024-02-14T03:24:47;94395.16;;;4.75;89.84
62978;BME280;49073;42.352;23.808;2024-02-14T03:27:48;94407.56;;;4.75;89.33
62978;BME280;49073;42.352;23.808;2024-02-14T03:30:53;94410.34;;;4.78;89.13
62978;BME280;49073;42.352;23.808;2024-02-14T03:33:54;94408.16;;;4.80;88.82
62978;BME280;49073;42.352;23.808;2024-02-14T03:36:55;94410.47;;;4.82;89.34
62978;BME280;49073;42.352;23.808;2024-02-14T03:39:55;94415.56;;;4.87;88.83
62978;BME280;49073;42.352;23.808;2024-02-14T03:42:56;94414.78;;;4.87;88.15
62978;BME280;49073;42.352;23.808;2024-02-14T03:45:57;94411.69;;;4.85;89.08
62978;BME280;49073;42.352;23.808;2024-02-14T03:48:57;94419.47;;;4.81;88.63
62978;BME280;49073;42.352;23.808;2024-02-14T03:51:58;94427.09;;;4.83;89.31
62978;BME280;49073;42.352;23.808;2024-02-14T03:55:01;94428.19;;;4.82;88.87
62978;BME280;49073;42.352;23.808;2024-02-14T03:58:03;94430.69;;;4.78;88.45
62978;BME280;49073;42.352;23.808;2024-02-14T04:01:06;94425.22;;;4.83;88.51
62978;BME280;49073;42.352;23.808;2024-02-14T04:04:07;94443.03;;;4.86;87.51
62978;BME280;49073;42.352;23.808;2024-02-14T04:07:08;94444.78;;;4.82;86.97
62978;BME280;49073;42.352;23.808;2024-02-14T04:10:09;94448.06;;;4.79;86.68
62978;BME280;49073;42.352;23.808;2024-02-14T04:13:09;94454.69;;;4.85;87.03
62978;BME280;49073;42.352;23.808;2024-02-14T04:16:10;94457.09;;;4.78;87.90
62978;BME280;49073;42.352;23.808;2024-02-14T04:19:10;94458.44;;;4.84;87.10
62978;BME280;49073;42.352;23.808;2024-02-14T04:22:13;94454.59;;;4.82;86.30
62978;BME280;49073;42.352;23.808;2024-02-14T04:25:13;94457.03;;;4.87;86.30
62978;BME280;49073;42.352;23.808;2024-02-14T04:28:14;94463.72;;;4.84;85.74
62978;BME280;49073;42.352;23.808;2024-02-14T04:31:15;94468.44;;;4.78;85.86
62978;BME280;49073;42.352;23.808;2024-02-14T04:34:16;94467.78;;;4.82;85.88
62978;BME280;49073;42.352;23.808;2024-02-14T04:37:17;94476.34;;;4.78;85.19
62978;BME280;49073;42.352;23.808;2024-02-14T04:40:19;94470.44;;;4.82;84.42
62978;BME280;49073;42.352;23.808;2024-02-14T04:43:20;94476.81;;;4.80;84.38
62978;BME280;49073;42.352;23.808;2024-02-14T04:46:20;94477.69;;;4.85;84.54
62978;BME280;49073;42.352;23.808;2024-02-14T04:49:22;94480.34;;;4.85;84.68
62978;BME280;49073;42.352;23.808;2024-02-14T04:52:23;94488.56;;;4.83;84.69
62978;BME280;49073;42.352;23.808;2024-02-14T04:55:23;94488.38;;;4.88;84.61
62978;BME280;49073;42.352;23.808;2024-02-14T04:58:24;94485.28;;;4.86;84.53
62978;BME280;49073;42.352;23.808;2024-02-14T05:01:27;94491.22;;;4.83;83.86
62978;BME280;49073;42.352;23.808;2024-02-14T05:04:27;94484.25;;;4.78;84.13
62978;BME280;49073;42.352;23.808;2024-02-14T05:07:28;94490.44;;;4.83;83.98
62978;BME280;49073;42.352;23.808;2024-02-14T05:10:28;94495.13;;;4.77;84.24
62978;BME280;49073;42.352;23.808;2024-02-14T05:13:29;94501.84;;;4.74;84.01
62978;BME280;49073;42.352;23.808;2024-02-14T05:16:29;94501.50;;;4.76;83.88
62978;BME280;49073;42.352;23.808;2024-02-14T05:19:30;94521.06;;;4.75;84.29
62978;BME280;49073;42.352;23.808;2024-02-14T05:22:30;94524.50;;;4.75;84.45
62978;BME280;49073;42.352;23.808;2024-02-14T05:25:31;94523.72;;;4.75;84.04
62978;BME280;49073;42.352;23.808;2024-02-14T05:28:33;94528.25;;;4.74;84.01
62978;BME280;49073;42.352;23.808;2024-02-14T05:31:44;94533.06;;;4.72;83.54
62978;BME280;49073;42.352;23.808;2024-02-14T05:34:44;94538.03;;;4.65;83.51
62978;BME280;49073;42.352;23.808;2024-02-14T05:37:45;94539.13;;;4.64;83.91
62978;BME280;49073;42.352;23.808;2024-02-14T05:40:49;94542.22;;;4.66;83.48
62978;BME280;49073;42.352;23.808;2024-02-14T05:43:50;94554.94;;;4.73;83.43
62978;BME280;49073;42.352;23.808;2024-02-14T05:46:50;94559.75;;;4.71;83.51
62978;BME280;49073;42.352;23.808;2024-02-14T05:49:51;94561.94;;;4.69;83.85
62978;BME280;49073;42.352;23.808;2024-02-14T05:52:51;94559.78;;;4.62;83.61
62978;BME280;49073;42.352;23.808;2024-02-14T05:55:52;94565.34;;;4.69;83.57
62978;BME280;49073;42.352;23.808;2024-02-14T05:58:52;94570.16;;;4.67;83.43
62978;BME280;49073;42.352;23.808;2024-02-14T06:01:53;94570.81;;;4.64;83.50
62978;BME280;49073;42.352;23.808;2024-02-14T06:04:54;94577.31;;;4.66;83.35
62978;BME280;49073;42.352;23.808;2024-02-14T06:07:54;94570.97;;;4.59;83.92
62978;BME280;49073;42.352;23.808;2024-02-14T06:10:55;94573.94;;;4.57;83.73
62978;BME280;49073;42.352;23.808;2024-02-14T06:13:56;94586.97;;;4.62;83.91
62978;BME280;49073;42.352;23.808;2024-02-14T06:16:56;94594.28;;;4.57;83.75
62978;BME280;49073;42.352;23.808;2024-02-14T06:19:57;94597.06;;;4.60;83.88
62978;BME280;49073;42.352;23.808;2024-02-14T06:22:59;94593.06;;;4.54;83.84
62978;BME280;49073;42.352;23.808;2024-02-14T06:25:59;94605.63;;;4.57;83.99
62978;BME280;49073;42.352;23.808;2024-02-14T06:29:01;94605.91;;;4.64;83.88
62978;BME280;49073;42.352;23.808;2024-02-14T06:32:02;94610.56;;;4.59;83.38
62978;BME280;49073;42.352;23.808;2024-02-14T06:35:03;94617.22;;;4.65;83.52
62978;BME280;49073;42.352;23.808;2024-02-14T06:38:04;94607.66;;;4.51;83.79
62978;BME280;49073;42.352;23.808;2024-02-14T06:41:06;94615.84;;;4.59;83.01
62978;BME280;49073;42.352;23.808;2024-02-14T06:44:07;94618.50;;;4.59;83.17
62978;BME280;49073;42.352;23.808;2024-02-14T06:47:07;94633.06;;;4.65;83.15
62978;BME280;49073;42.352;23.808;2024-02-14T06:50:08;94627.03;;;4.64;82.97
62978;BME280;49073;42.352;23.808;2024-02-14T06:53:09;94632.47;;;4.59;83.42
62978;BME280;49073;42.352;23.808;2024-02-14T06:56:09;94631.84;;;4.62;83.35
62978;BME280;49073;42.352;23.808;2024-02-14T06:59:10;94642.06;;;4.64;82.72
62978;BME280;49073;42.352;23.808;2024-02-14T07:02:10;94642.97;;;4.68;82.51
62978;BME280;49073;42.352;23.808;2024-02-14T07:05:11;94649.34;;;4.67;82.48
62978;BME280;49073;42.352;23.808;2024-02-14T07:08:14;94657.44;;;4.62;83.06
62978;BME280;49073;42.352;23.808;2024-02-14T07:11:16;94647.34;;;4.64;82.91
62978;BME280;49073;42.352;23.808;2024-02-14T07:14:16;94649.53;;;4.62;82.58
62978;BME280;49073;42.352;23.808;2024-02-14T07:17:17;94654.84;;;4.53;83.22
62978;BME280;49073;42.352;23.808;2024-02-14T07:20:18;94658.41;;;4.57;82.79
62978;BME280;49073;42.352;23.808;2024-02-14T07:23:20;94651.75;;;4.51;82.60
62978;BME280;49073;42.352;23.808;2024-02-14T07:26:20;94653.28;;;4.52;82.53
62978;BME280;49073;42.352;23.808;2024-02-14T07:29:21;94668.03;;;4.53;83.12
62978;BME280;49073;42.352;23.808;2024-02-14T07:32:21;94657.59;;;4.57;81.98
62978;BME280;49073;42.352;23.808;2024-02-14T07:35:22;94678.56;;;4.62;82.30
62978;BME280;49073;42.352;23.808;2024-02-14T07:38:22;94682.44;;;4.64;81.58
62978;BME280;49073;42.352;23.808;2024-02-14T07:41:23;94679.47;;;4.66;81.66
62978;BME280;49073;42.352;23.808;2024-02-14T07:44:24;94680.25;;;4.66;80.68
62978;BME280;49073;42.352;23.808;2024-02-14T07:47:24;94688.47;;;4.65;80.80
62978;BME280;49073;42.352;23.808;2024-02-14T07:50:25;94696.09;;;4.66;80.93
62978;BME280;49073;42.352;23.808;2024-02-14T07:53:28;94690.19;;;4.70;80.75
62978;BME280;49073;42.352;23.808;2024-02-14T07:56:30;94697.31;;;4.69;80.33
62978;BME280;49073;42.352;23.808;2024-02-14T07:59:32;94689.91;;;4.62;80.37
62978;BME280;49073;42.352;23.808;2024-02-14T08:02:33;94686.94;;;4.64;80.25
62978;BME280;49073;42.352;23.808;2024-02-14T08:05:33;94690.66;;;4.63;81.29
62978;BME280;49073;42.352;23.808;2024-02-14T08:08:35;94695.50;;;4.52;82.25
62978;BME280;49073;42.352;23.808;2024-02-14T08:11:36;94695.19;;;4.54;83.78
62978;BME280;49073;42.352;23.808;2024-02-14T08:14:36;94699.84;;;4.57;83.96
62978;BME280;49073;42.352;23.808;2024-02-14T08:17:37;94697.69;;;4.50;84.92
62978;BME280;49073;42.352;23.808;2024-02-14T08:20:38;94695.81;;;4.59;82.86
62978;BME280;49073;42.352;23.808;2024-02-14T08:23:38;94701.69;;;4.65;82.80
62978;BME280;49073;42.352;23.808;2024-02-14T08:26:40;94690.94;;;4.70;82.81
62978;BME280;49073;42.352;23.808;2024-02-14T08:29:42;94696.56;;;4.69;81.98
62978;BME280;49073;42.352;23.808;2024-02-14T08:32:42;94705.56;;;4.76;82.45
62978;BME280;49073;42.352;23.808;2024-02-14T08:35:43;94702.88;;;4.85;81.48
62978;BME280;49073;42.352;23.808;2024-02-14T08:38:43;94711.88;;;4.84;81.21
62978;BME280;49073;42.352;23.808;2024-02-14T08:41:44;94714.81;;;4.91;80.66
62978;BME280;49073;42.352;23.808;2024-02-14T08:44:47;94714.50;;;4.93;80.86
62978;BME280;49073;42.352;23.808;2024-02-14T08:47:48;94720.53;;;5.02;80.56
62978;BME280;49073;42.352;23.808;2024-02-14T08:50:49;94726.84;;;5.19;79.80
62978;BME280;49073;42.352;23.808;2024-02-14T08:53:50;94729.31;;;5.24;79.91
62978;BME280;49073;42.352;23.808;2024-02-14T08:56:55;94726.09;;;5.18;77.59
62978;BME280;49073;42.352;23.808;2024-02-14T08:59:58;94731.50;;;5.22;77.13
62978;BME280;49073;42.352;23.808;2024-02-14T09:02:59;94737.53;;;5.31;77.69
62978;BME280;49073;42.352;23.808;2024-02-14T09:06:00;94731.00;;;5.29;76.87
62978;BME280;49073;42.352;23.808;2024-02-14T09:09:00;94734.13;;;5.22;77.07
62978;BME280;49073;42.352;23.808;2024-02-14T09:12:01;94733.34;;;5.30;78.57
62978;BME280;49073;42.352;23.808;2024-02-14T09:15:03;94735.19;;;5.38;77.90
62978;BME280;49073;42.352;23.808;2024-02-14T09:18:05;94737.94;;;5.42;77.37
62978;BME280;49073;42.352;23.808;2024-02-14T09:21:06;94744.47;;;5.45;77.42
62978;BME280;49073;42.352;23.808;2024-02-14T09:24:06;94749.75;;;5.45;75.83
62978;BME280;49073;42.352;23.808;2024-02-14T09:27:07;94746.50;;;5.39;75.50
62978;BME280;49073;42.352;23.808;2024-02-14T09:30:09;94753.69;;;5.38;75.60
62978;BME280;49073;42.352;23.808;2024-02-14T09:33:10;94754.13;;;5.41;76.36
62978;BME280;49073;42.352;23.808;2024-02-14T09:36:10;94763.78;;;5.36;75.84
62978;BME280;49073;42.352;23.808;2024-02-14T09:39:11;94753.34;;;5.40;74.88
62978;BME280;49073;42.352;23.808;2024-02-14T09:42:13;94761.31;;;5.31;74.73
62978;BME280;49073;42.352;23.808;2024-02-14T09:45:16;94764.09;;;5.35;75.63
62978;BME280;49073;42.352;23.808;2024-02-14T09:48:19;94753.53;;;5.26;75.41
62978;BME280;49073;42.352;23.808;2024-02-14T09:51:21;94753.53;;;5.26;75.59
62978;BME280;49073;42.352;23.808;2024-02-14T09:54:22;94752.59;;;5.39;75.99
62978;BME280;49073;42.352;23.808;2024-02-14T09:57:24;94760.97;;;5.42;76.17
62978;BME280;49073;42.352;23.808;2024-02-14T10:00:26;94757.53;;;5.41;74.41
62978;BME280;49073;42.352;23.808;2024-02-14T10:03:27;94756.41;;;5.51;74.25
62978;BME280;49073;42.352;23.808;2024-02-14T10:06:28;94759.72;;;5.39;74.30
62978;BME280;49073;42.352;23.808;2024-02-14T10:09:28;94756.31;;;5.38;73.98
62978;BME280;49073;42.352;23.808;2024-02-14T10:12:30;94760.69;;;5.34;74.31
62978;BME280;49073;42.352;23.808;2024-02-14T10:15:31;94766.28;;;5.33;73.67
62978;BME280;49073;42.352;23.808;2024-02-14T10:18:32;94764.91;;;5.27;73.98
62978;BME280;49073;42.352;23.808;2024-02-14T10:21:32;94774.34;;;5.36;73.93
62978;BME280;49073;42.352;23.808;2024-02-14T10:24:33;94768.28;;;5.36;73.88
62978;BME280;49073;42.352;23.808;2024-02-14T10:27:37;94766.44;;;5.28;73.67
62978;BME280;49073;42.352;23.808;2024-02-14T10:30:38;94762.56;;;5.25;74.84
62978;BME280;49073;42.352;23.808;2024-02-14T10:33:41;94763.53;;;5.20;74.79
62978;BME280;49073;42.352;23.808;2024-02-14T10:36:45;94769.78;;;5.07;74.28
62978;BME280;49073;42.352;23.808;2024-02-14T10:39:46;94757.50;;;5.11;74.33
62978;BME280;49073;42.352;23.808;2024-02-14T10:42:47;94755.94;;;5.10;74.44
62978;BME280;49073;42.352;23.808;2024-02-14T10:45:48;94751.59;;;5.05;74.53
62978;BME280;49073;42.352;23.808;2024-02-14T10:49:04;94759.97;;;5.16;74.38
62978;BME280;49073;42.352;23.808;2024-02-14T10:52:06;94757.59;;;5.23;74.81
62978;BME280;49073;42.352;23.808;2024-02-14T10:55:09;94752.97;;;5.20;74.45
62978;BME280;49073;42.352;23.808;2024-02-14T10:58:12;94759.97;;;5.16;74.75
62978;BME280;49073;42.352;23.808;2024-02-14T11:01:15;94761.19;;;5.19;75.30
62978;BME280;49073;42.352;23.808;2024-02-14T11:04:19;94750.44;;;5.24;75.11
62978;BME280;49073;42.352;23.808;2024-02-14T11:07:21;94755.59;;;5.20;74.39
62978;BME280;49073;42.352;23.808;2024-02-14T11:10:27;94759.13;;;5.33;74.89
62978;BME280;49073;42.352;23.808;2024-02-14T11:13:31;94758.38;;;5.24;74.57
62978;BME280;49073;42.352;23.808;2024-02-14T11:16:32;94756.63;;;5.28;75.73
62978;BME280;49073;42.352;23.808;2024-02-14T11:19:33;94744.97;;;5.29;74.96
62978;BME280;49073;42.352;23.808;2024-02-14T11:22:36;94748.25;;;5.26;74.71
62978;BME280;49073;42.352;23.808;2024-02-14T11:25:37;94753.09;;;5.24;75.03
62978;BME280;49073;42.352;23.808;2024-02-14T11:28:37;94756.16;;;5.35;76.26
62978;BME280;49073;42.352;23.808;2024-02-14T11:31:41;94754.31;;;5.35;75.48
62978;BME280;49073;42.352;23.808;2024-02-14T11:34:42;94758.53;;;5.28;75.37
62978;BME280;49073;42.352;23.808;2024-02-14T11:37:42;94753.84;;;5.33;75.54
62978;BME280;49073;42.352;23.808;2024-02-14T11:40:43;94753.69;;;5.30;76.00
62978;BME280;49073;42.352;23.808;2024-02-14T11:43:51;94749.53;;;5.20;75.45
62978;BME280;49073;42.352;23.808;2024-02-14T11:46:51;94759.63;;;5.27;77.28
62978;BME280;49073;42.352;23.808;2024-02-14T11:49:52;94756.94;;;5.35;77.44
62978;BME280;49073;42.352;23.808;2024-02-14T11:52:53;94762.56;;;5.25;75.73
62978;BME280;49073;42.352;23.808;2024-02-14T11:55:55;94765.19;;;5.25;77.00
62978;BME280;49073;42.352;23.808;2024-02-14T11:58:56;94759.19;;;5.16;76.70
62978;BME280;49073;42.352;23.808;2024-02-14T12:01:56;94765.25;;;5.07;76.49
62978;BME280;49073;42.352;23.808;2024-02-14T12:05:00;94770.53;;;5.07;76.64
62978;BME280;49073;42.352;23.808;2024-02-14T12:08:05;94775.38;;;4.97;76.09
62978;BME280;49073;42.352;23.808;2024-02-14T12:11:06;94773.53;;;4.97;76.49
62978;BME280;49073;42.352;23.808;2024-02-14T12:14:09;94782.06;;;5.03;77.04
62978;BME280;49073;42.352;23.808;2024-02-14T12:17:10;94776.63;;;4.99;77.88
62978;BME280;49073;42.352;23.808;2024-02-14T12:20:11;94776.78;;;5.03;78.27
62978;BME280;49073;42.352;23.808;2024-02-14T12:23:15;94777.25;;;4.96;78.32
62978;BME280;49073;42.352;23.808;2024-02-14T12:26:18;94777.38;;;5.00;78.69
62978;BME280;49073;42.352;23.808;2024-02-14T12:29:20;94779.09;;;5.04;78.75
62978;BME280;49073;42.352;23.808;2024-02-14T12:32:23;94783.47;;;5.00;78.02
62978;BME280;49073;42.352;23.808;2024-02-14T12:35:24;94785.94;;;5.05;78.15
62978;BME280;49073;42.352;23.808;2024-02-14T12:38:25;94779.56;;;4.98;78.37
62978;BME280;49073;42.352;23.808;2024-02-14T12:41:25;94786.91;;;4.92;77.19
62978;BME280;49073;42.352;23.808;2024-02-14T12:44:27;94781.63;;;4.92;76.93
62978;BME280;49073;42.352;23.808;2024-02-14T12:47:27;94780.06;;;4.91;76.58
62978;BME280;49073;42.352;23.808;2024-02-14T12:50:32;94779.44;;;4.94;76.33
62978;BME280;49073;42.352;23.808;2024-02-14T12:53:32;94775.53;;;5.00;77.36
62978;BME280;49073;42.352;23.808;2024-02-14T12:56:33;94783.00;;;4.98;76.25
62978;BME280;49073;42.352;23.808;2024-02-14T12:59:34;94790.59;;;5.08;76.31
62978;BME280;49073;42.352;23.808;2024-02-14T13:02:35;94792.00;;;5.06;76.68
62978;BME280;49073;42.352;23.808;2024-02-14T13:05:36;94791.56;;;4.95;76.88
62978;BME280;49073;42.352;23.808;2024-02-14T13:08:36;94794.94;;;5.04;77.01
62978;BME280;49073;42.352;23.808;2024-02-14T13:11:40;94797.13;;;5.02;77.40
62978;BME280;49073;42.352;23.808;2024-02-14T13:14:42;94804.13;;;5.07;78.29
62978;BME280;49073;42.352;23.808;2024-02-14T13:17:44;94799.59;;;5.07;78.20
62978;BME280;49073;42.352;23.808;2024-02-14T13:20:45;94809.88;;;5.09;78.01
62978;BME280;49073;42.352;23.808;2024-02-14T13:23:45;94800.38;;;5.08;77.32
62978;BME280;49073;42.352;23.808;2024-02-14T13:26:46;94813.91;;;5.06;77.89
62978;BME280;49073;42.352;23.808;2024-02-14T13:29:47;94808.63;;;4.98;77.27
62978;BME280;49073;42.352;23.808;2024-02-14T13:32:48;94808.31;;;4.99;77.38
62978;BME280;49073;42.352;23.808;2024-02-14T13:35:48;94809.56;;;4.84;77.09
62978;BME280;49073;42.352;23.808;2024-02-14T13:38:49;94807.72;;;4.85;77.53
62978;BME280;49073;42.352;23.808;2024-02-14T13:41:50;94806.34;;;4.78;76.72
62978;BME280;49073;42.352;23.808;2024-02-14T13:44:51;94805.53;;;4.87;77.25
62978;BME280;49073;42.352;23.808;2024-02-14T13:48:02;94809.56;;;4.84;77.34
62978;BME280;49073;42.352;23.808;2024-02-14T13:51:04;94817.50;;;4.84;77.11
62978;BME280;49073;42.352;23.808;2024-02-14T13:54:05;94804.75;;;4.86;77.52
62978;BME280;49073;42.352;23.808;2024-02-14T13:57:06;94808.31;;;4.90;76.57
62978;BME280;49073;42.352;23.808;2024-02-14T14:00:08;94813.47;;;4.87;77.54
62978;BME280;49073;42.352;23.808;2024-02-14T14:03:09;94807.09;;;4.88;77.73
62978;BME280;49073;42.352;23.808;2024-02-14T14:06:10;94823.53;;;4.93;78.02
62978;BME280;49073;42.352;23.808;2024-02-14T14:09:10;94814.09;;;4.84;78.58
62978;BME280;49073;42.352;23.808;2024-02-14T14:12:12;94824.50;;;4.89;77.95
62978;BME280;49073;42.352;23.808;2024-02-14T14:15:13;94824.00;;;4.95;77.69
62978;BME280;49073;42.352;23.808;2024-02-14T14:18:13;94820.28;;;4.97;78.05
62978;BME280;49073;42.352;23.808;2024-02-14T14:21:14;94827.75;;;4.86;78.44
62978;BME280;49073;42.352;23.808;2024-02-14T14:24:15;94818.91;;;4.82;78.07
62978;BME280;49073;42.352;23.808;2024-02-14T14:27:16;94826.66;;;4.87;77.82
62978;BME280;49073;42.352;23.808;2024-02-14T14:30:18;94833.63;;;4.91;77.70
62978;BME280;49073;42.352;23.808;2024-02-14T14:33:18;94831.00;;;5.00;77.56
62978;BME280;49073;42.352;23.808;2024-02-14T14:36:19;94829.44;;;4.99;76.66
62978;BME280;49073;42.352;23.808;2024-02-14T14:39:20;94829.91;;;5.01;76.88
62978;BME280;49073;42.352;23.808;2024-02-14T14:42:21;94831.31;;;4.90;76.52
62978;BME280;49073;42.352;23.808;2024-02-14T14:45:22;94844.19;;;5.00;75.96
62978;BME280;49073;42.352;23.808;2024-02-14T14:48:22;94845.91;;;4.96;76.59
62978;BME280;49073;42.352;23.808;2024-02-14T14:51:23;94844.50;;;4.99;76.38
62978;BME280;49073;42.352;23.808;2024-02-14T14:54:23;94851.66;;;4.98;76.11
62978;BME280;49073;42.352;23.808;2024-02-14T14:57:24;94844.66;;;4.93;75.80
62978;BME280;49073;42.352;23.808;2024-02-14T15:00:25;94849.19;;;4.93;75.93
62978;BME280;49073;42.352;23.808;2024-02-14T15:03:26;94857.56;;;4.95;75.77
62978;BME280;49073;42.352;23.808;2024-02-14T15:06:27;94860.84;;;4.92;76.06
62978;BME280;49073;42.352;23.808;2024-02-14T15:09:27;94858.50;;;4.90;76.35
62978;BME280;49073;42.352;23.808;2024-02-14T15:12:28;94855.56;;;4.92;76.31
62978;BME280;49073;42.352;23.808;2024-02-14T15:15:29;94848.25;;;4.89;76.64
62978;BME280;49073;42.352;23.808;2024-02-14T15:18:29;94856.78;;;4.94;76.52
62978;BME280;49073;42.352;23.808;2024-02-14T15:21:30;94862.22;;;4.89;75.82
62978;BME280;49073;42.352;23.808;2024-02-14T15:24:30;94865.50;;;4.95;76.24
62978;BME280;49073;42.352;23.808;2024-02-14T15:27:31;94865.31;;;4.91;76.59
62978;BME280;49073;42.352;23.808;2024-02-14T15:30:33;94863.63;;;4.87;76.48
62978;BME280;49073;42.352;23.808;2024-02-14T15:33:53;94873.41;;;4.86;76.43
62978;BME280;49073;42.352;23.808;2024-02-14T15:36:55;94874.66;;;4.80;76.29
62978;BME280;49073;42.352;23.808;2024-02-14T15:39:56;94870.78;;;4.77;76.67
62978;BME280;49073;42.352;23.808;2024-02-14T15:42:57;94870.00;;;4.86;76.08
62978;BME280;49073;42.352;23.808;2024-02-14T15:46:00;94879.16;;;4.79;76.31
62978;BME280;49073;42.352;23.808;2024-02-14T15:49:01;94882.91;;;4.78;76.13
62978;BME280;49073;42.352;23.808;2024-02-14T15:52:02;94879.00;;;4.76;75.62
62978;BME280;49073;42.352;23.808;2024-02-14T15:55:06;94886.63;;;4.77;75.34
62978;BME280;49073;42.352;23.808;2024-02-14T15:58:08;94883.66;;;4.79;75.23
62978;BME280;49073;42.352;23.808;2024-02-14T16:01:10;94892.50;;;4.83;74.84